Time;durP1;ratioP1;P1;durP2;ratioP2;P2;SDS_P1;SDS_P2;PMS_P1;PMS_P2;Temp;Humidity;BMP_temperature;BMP_pressure;BME280_temperature;BME280_humidity;BME280_pressure;Samples;Min_cycle;Max_cycle;Signal;HPM_P1;HPM_P2
2022/11/29 00:00:16;;;;;;;25.13;17.83;;;;;;;11.06;69.60;100772.47;681254;29;1156;-81
2022/11/29 00:00:37;;;;;;;25.17;17.98;;;;;;;11.05;69.95;100774.19;678110;29;1201;-81
2022/11/29 00:00:57;;;;;;;23.58;18.20;;;;;;;11.04;69.73;100771.53;675562;29;765;-81
2022/11/29 00:01:21;;;;;;;22.80;17.73;;;;;;;11.05;69.71;100768.09;677805;29;1208;-81
2022/11/29 00:01:41;;;;;;;22.95;17.67;;;;;;;11.07;69.42;100776.84;680613;29;1248;-80
2022/11/29 00:02:02;;;;;;;22.90;18.10;;;;;;;11.09;69.69;100775.16;680558;29;1021;-81
2022/11/29 00:02:22;;;;;;;23.60;18.17;;;;;;;11.06;69.55;100764.63;677865;29;1042;-79
2022/11/29 00:02:43;;;;;;;23.40;17.80;;;;;;;11.06;69.67;100777.69;675391;29;1913;-79
2022/11/29 00:03:04;;;;;;;23.37;17.10;;;;;;;11.07;69.76;100776.84;675386;29;1270;-79
2022/11/29 00:03:24;;;;;;;22.13;16.58;;;;;;;11.09;69.53;100777.75;675344;29;1269;-79
2022/11/29 00:03:46;;;;;;;22.05;16.48;;;;;;;11.07;69.74;100776.84;675537;29;757;-81
2022/11/29 00:04:06;;;;;;;21.50;16.65;;;;;;;11.07;69.65;100769.00;672588;29;1263;-81
2022/11/29 00:04:27;;;;;;;22.70;17.15;;;;;;;11.13;69.75;100781.34;672769;29;1439;-81
2022/11/29 00:04:47;;;;;;;23.52;17.70;;;;;;;11.08;69.65;100779.47;673050;29;852;-81
2022/11/29 00:05:08;;;;;;;24.03;17.73;;;;;;;11.11;69.65;100781.28;670118;29;1176;-81
2022/11/29 00:05:33;;;;;;;26.88;18.40;;;;;;;11.11;69.70;100778.69;672867;29;1183;-81
2022/11/29 00:05:54;;;;;;;25.50;17.60;;;;;;;11.07;69.76;100769.88;675486;29;855;-81
2022/11/29 00:06:20;;;;;;;23.42;17.10;;;;;;;11.13;69.70;100786.56;675215;29;1213;-81
2022/11/29 00:06:40;;;;;;;23.35;15.82;;;;;;;11.09;69.80;100775.16;675375;29;863;-81
2022/11/29 00:07:01;;;;;;;23.47;15.80;;;;;;;11.10;69.91;100779.53;677983;29;749;-79
2022/11/29 00:07:21;;;;;;;24.42;16.20;;;;;;;11.10;69.76;100777.81;677806;29;1173;-79
2022/11/29 00:07:42;;;;;;;26.30;17.03;;;;;;;11.09;69.64;100783.88;677958;29;993;-79
2022/11/29 00:08:02;;;;;;;25.87;16.67;;;;;;;11.15;69.65;100790.09;678050;29;1027;-79
2022/11/29 00:08:23;;;;;;;26.05;16.85;;;;;;;11.10;69.61;100779.53;672736;29;1278;-79
2022/11/29 00:08:44;;;;;;;24.03;17.03;;;;;;;11.09;69.73;100772.53;677964;29;1032;-79
2022/11/29 00:09:10;;;;;;;24.17;17.25;;;;;;;11.10;69.78;100784.75;680470;29;1376;-79
2022/11/29 00:09:31;;;;;;;21.75;16.05;;;;;;;11.16;69.94;100792.75;680640;29;860;-79
2022/11/29 00:09:51;;;;;;;21.80;16.20;;;;;;;11.10;69.46;100775.19;675310;29;1175;-79
2022/11/29 00:10:12;;;;;;;24.50;16.98;;;;;;;11.18;69.76;100795.41;675176;29;1066;-79
2022/11/29 00:10:36;;;;;;;23.40;16.90;;;;;;;11.13;69.72;100782.25;675371;29;1195;-79
2022/11/29 00:11:04;;;;;;;22.77;16.45;;;;;;;11.12;69.61;100785.66;672868;29;1181;-80
2022/11/29 00:12:11;;;;;;;22.40;15.45;;;;;;;11.07;69.47;100780.31;672475;29;1151;-79
2022/11/29 00:12:31;;;;;;;23.02;15.50;;;;;;;11.12;69.25;100784.81;678047;29;1265;-79
2022/11/29 00:12:52;;;;;;;22.10;15.27;;;;;;;11.07;69.87;100774.25;683353;29;894;-79
2022/11/29 00:13:12;;;;;;;22.63;15.90;;;;;;;11.10;69.59;100782.13;683124;29;1112;-79
2022/11/29 00:13:34;;;;;;;23.25;16.13;;;;;;;11.14;69.66;100798.78;680499;29;1579;-79
2022/11/29 00:13:54;;;;;;;24.63;16.70;;;;;;;11.06;69.81;100782.91;680675;29;867;-79
2022/11/29 00:14:17;;;;;;;24.83;16.77;;;;;;;11.14;69.56;100791.84;677861;29;1133;-79
2022/11/29 00:14:38;;;;;;;25.02;16.75;;;;;;;11.05;69.78;100781.16;678016;29;1371;-79
2022/11/29 00:14:58;;;;;;;23.65;16.40;;;;;;;11.09;69.62;100785.59;678141;29;824;-79
2022/11/29 00:15:19;;;;;;;22.40;16.00;;;;;;;11.13;69.54;100795.31;675158;29;1105;-80
2022/11/29 00:15:40;;;;;;;21.55;16.17;;;;;;;11.10;69.69;100788.25;678024;29;824;-79
2022/11/29 00:16:06;;;;;;;24.93;16.20;;;;;;;11.10;69.70;100795.19;678589;29;780;-79
2022/11/29 00:16:50;;;;;;;25.60;16.70;;;;;;;11.12;69.46;100790.88;683118;29;804;-79
2022/11/29 00:17:11;;;;;;;24.38;16.50;;;;;;;11.09;69.58;100778.66;677800;29;1076;-79
2022/11/29 00:17:31;;;;;;;25.88;16.60;;;;;;;11.12;69.56;100780.44;675452;29;1158;-79
2022/11/29 00:17:52;;;;;;;27.60;16.80;;;;;;;11.12;69.47;100785.66;677939;29;1275;-80
2022/11/29 00:18:13;;;;;;;28.07;17.67;;;;;;;11.17;69.48;100789.28;677828;29;1120;-79
2022/11/29 00:18:34;;;;;;;29.33;18.02;;;;;;;11.12;69.44;100774.34;672844;29;1065;-79
2022/11/29 00:18:54;;;;;;;27.83;17.60;;;;;;;11.13;69.65;100781.34;675371;29;846;-79
2022/11/29 00:19:15;;;;;;;26.50;16.52;;;;;;;11.15;69.86;100790.09;680273;29;1070;-79
2022/11/29 00:19:36;;;;;;;25.90;16.80;;;;;;;11.16;69.53;100778.78;680617;28;1179;-79
2022/11/29 00:19:56;;;;;;;23.57;16.67;;;;;;;11.16;69.45;100782.31;672858;29;882;-79
2022/11/29 00:20:17;;;;;;;24.05;17.05;;;;;;;11.21;69.40;100787.66;672579;29;1152;-79
2022/11/29 00:20:38;;;;;;;22.45;16.10;;;;;;;11.13;69.43;100779.63;672950;29;887;-79
2022/11/29 00:21:03;;;;;;;23.23;15.93;;;;;;;11.19;69.45;100787.59;675510;29;769;-79
2022/11/29 00:21:23;;;;;;;23.50;15.70;;;;;;;11.18;69.60;100793.66;675376;29;970;-79
2022/11/29 00:21:44;;;;;;;25.37;16.37;;;;;;;11.22;69.51;100795.53;680719;29;807;-79
2022/11/29 00:22:05;;;;;;;25.48;16.50;;;;;;;11.16;69.50;100784.91;677771;29;1197;-79
2022/11/29 00:22:25;;;;;;;26.35;17.23;;;;;;;11.18;69.45;100785.84;677808;29;1030;-79
2022/11/29 00:22:46;;;;;;;26.30;17.20;;;;;;;11.21;69.30;100791.16;672907;29;717;-80
2022/11/29 00:23:06;;;;;;;27.13;18.20;;;;;;;11.18;69.54;100785.84;675165;29;1030;-79
2022/11/29 00:23:27;;;;;;;27.20;18.50;;;;;;;11.22;69.37;100792.03;678092;29;979;-79
2022/11/29 00:23:48;;;;;;;25.00;17.80;;;;;;;11.18;69.39;100784.97;675327;29;1094;-79
2022/11/29 00:24:09;;;;;;;23.92;16.92;;;;;;;11.19;69.44;100792.81;675103;29;1263;-80
2022/11/29 00:24:33;;;;;;;25.55;16.42;;;;;;;11.15;69.38;100782.25;677886;29;1061;-79
2022/11/29 00:24:53;;;;;;;28.13;16.77;;;;;;;11.17;69.36;100784.06;677849;29;1303;-79
2022/11/29 00:25:14;;;;;;;29.83;16.98;;;;;;;11.14;69.48;100784.00;675318;29;1303;-79
2022/11/29 00:25:37;;;;;;;29.73;17.05;;;;;;;11.18;69.55;100782.34;678075;29;756;-79
2022/11/29 00:26:06;;;;;;;29.58;17.13;;;;;;;11.19;69.48;100782.38;675340;29;1230;-79
2022/11/29 00:26:26;;;;;;;30.80;17.67;;;;;;;11.21;69.28;100785.94;677942;29;847;-79
2022/11/29 00:26:48;;;;;;;30.23;18.00;;;;;;;11.18;69.18;100782.34;677813;29;1361;-80
2022/11/29 00:27:09;;;;;;;29.67;17.77;;;;;;;11.16;69.40;100787.53;677813;29;1270;-80
2022/11/29 00:27:30;;;;;;;30.30;18.10;;;;;;;11.12;69.08;100788.28;680526;29;1123;-80
2022/11/29 00:27:50;;;;;;;28.33;17.60;;;;;;;11.12;69.54;100784.81;678086;29;749;-80
2022/11/29 00:28:11;;;;;;;28.57;17.70;;;;;;;11.11;69.43;100783.91;675126;29;1222;-80
2022/11/29 00:28:39;;;;;;;28.23;17.65;;;;;;;11.16;69.42;100791.84;678096;29;796;-79
2022/11/29 00:29:06;;;;;;;30.65;17.77;;;;;;;11.07;69.41;100777.72;677111;29;1007;-79
2022/11/29 00:29:28;;;;;;;33.28;17.33;;;;;;;11.10;69.45;100782.13;680543;29;941;-79
2022/11/29 00:29:48;;;;;;;33.88;17.35;;;;;;;11.07;69.52;100782.94;680723;29;764;-79
2022/11/29 00:30:10;;;;;;;31.67;17.33;;;;;;;11.09;69.64;100777.75;680177;29;1268;-80
2022/11/29 00:30:30;;;;;;;30.67;17.75;;;;;;;11.07;69.67;100779.47;675344;29;1432;-79
2022/11/29 00:30:51;;;;;;;30.95;18.27;;;;;;;11.04;69.60;100781.97;672677;29;1190;-80
2022/11/29 00:31:14;;;;;;;29.77;18.43;;;;;;;11.07;69.58;100785.56;675241;29;979;-80
2022/11/29 00:31:35;;;;;;;29.45;18.30;;;;;;;11.07;69.46;100793.38;678048;29;868;-79
2022/11/29 00:31:56;;;;;;;27.85;18.08;;;;;;;11.03;69.36;100780.22;677990;29;1138;-80
2022/11/29 00:32:16;;;;;;;28.60;17.30;;;;;;;11.04;69.44;100782.88;677793;29;1022;-79
2022/11/29 00:32:37;;;;;;;29.45;17.10;;;;;;;11.07;69.94;100790.78;681120;29;1389;-80
2022/11/29 00:32:57;;;;;;;30.08;16.60;;;;;;;11.04;69.69;100787.19;682501;29;1040;-80
2022/11/29 00:33:18;;;;;;;29.37;16.83;;;;;;;11.01;69.67;100780.19;680489;29;1231;-80
2022/11/29 00:33:39;;;;;;;29.60;17.23;;;;;;;11.00;69.61;100780.13;680690;29;841;-79
2022/11/29 00:34:02;;;;;;;30.75;17.88;;;;;;;11.01;69.81;100781.91;675436;29;733;-79
2022/11/29 00:34:22;;;;;;;28.73;17.55;;;;;;;11.02;69.66;100783.66;677906;29;1055;-79
2022/11/29 00:34:43;;;;;;;27.52;17.33;;;;;;;11.08;69.82;100795.16;678074;29;739;-79
2022/11/29 00:35:04;;;;;;;25.53;16.57;;;;;;;11.01;69.87;100779.28;677998;29;1208;-79
2022/11/29 00:35:24;;;;;;;24.27;16.20;;;;;;;11.06;69.90;100785.53;680465;29;1275;-80
2022/11/29 00:35:45;;;;;;;26.42;16.48;;;;;;;11.07;69.81;100795.13;680581;29;1243;-79
2022/11/29 00:36:06;;;;;;;27.05;16.98;;;;;;;11.05;69.77;100789.00;677843;29;1090;-80
2022/11/29 00:36:27;;;;;;;29.05;17.02;;;;;;;11.07;69.83;100787.28;678321;29;826;-79
2022/11/29 00:36:48;;;;;;;29.52;16.58;;;;;;;11.06;69.80;100790.75;677689;29;1283;-80
2022/11/29 00:37:09;;;;;;;30.08;15.70;;;;;;;11.02;69.83;100781.06;677644;29;1031;-80
2022/11/29 00:37:29;;;;;;;28.80;16.00;;;;;;;11.04;69.79;100787.19;678031;29;900;-79
2022/11/29 00:37:50;;;;;;;29.10;16.58;;;;;;;11.03;69.94;100781.09;680703;29;725;-80
2022/11/29 00:38:10;;;;;;;30.53;17.00;;;;;;;11.06;69.75;100790.75;685608;28;1225;-79
2022/11/29 00:38:31;;;;;;;31.52;17.38;;;;;;;11.05;69.91;100783.78;680632;29;832;-80
2022/11/29 00:38:52;;;;;;;30.13;16.95;;;;;;;11.03;69.83;100780.22;677861;29;1143;-80
2022/11/29 00:39:15;;;;;;;29.63;17.20;;;;;;;11.09;69.74;100791.72;677647;29;1485;-80
2022/11/29 00:39:35;;;;;;;28.95;16.90;;;;;;;11.08;69.94;100791.66;677939;29;1195;-80
2022/11/29 00:39:56;;;;;;;27.87;17.67;;;;;;;11.08;69.78;100791.66;680700;29;733;-81
2022/11/29 00:40:17;;;;;;;30.23;17.65;;;;;;;11.04;69.80;100787.19;677777;29;1097;-81
2022/11/29 00:40:37;;;;;;;29.17;17.02;;;;;;;11.05;69.58;100781.16;680611;28;1066;-81
2022/11/29 00:40:58;;;;;;;30.07;16.50;;;;;;;11.09;69.85;100788.22;677857;29;1214;-82
2022/11/29 00:41:19;;;;;;;27.87;16.37;;;;;;;11.04;69.51;100781.97;677745;29;1269;-80
2022/11/29 00:41:39;;;;;;;30.70;17.73;;;;;;;11.08;69.61;100783.84;677901;29;1069;-79
2022/11/29 00:42:00;;;;;;;32.20;17.63;;;;;;;11.07;69.82;100795.13;672817;29;1215;-79
2022/11/29 00:42:21;;;;;;;34.57;17.87;;;;;;;11.06;69.75;100780.31;675041;29;1123;-79
2022/11/29 00:42:41;;;;;;;31.97;17.20;;;;;;;11.06;69.54;100786.41;680156;29;1933;-79
2022/11/29 00:43:02;;;;;;;30.52;17.35;;;;;;;11.04;69.74;100787.19;680656;29;1157;-79
2022/11/29 00:43:22;;;;;;;29.10;17.40;;;;;;;11.09;69.81;100790.81;677736;29;1094;-79
2022/11/29 00:43:43;;;;;;;32.13;17.70;;;;;;;11.06;69.64;100790.75;678087;29;871;-79
2022/11/29 00:44:03;;;;;;;30.55;17.60;;;;;;;11.04;69.49;100784.59;677803;29;1166;-78
2022/11/29 00:44:24;;;;;;;29.20;17.20;;;;;;;11.04;69.61;100788.09;680490;29;1194;-79
2022/11/29 00:44:45;;;;;;;34.20;17.40;;;;;;;11.03;69.69;100785.44;677819;29;1157;-79
2022/11/29 00:45:06;;;;;;;40.67;18.17;;;;;;;11.01;69.88;100788.03;677778;29;1133;-79
2022/11/29 00:45:42;;;;;;;46.83;18.80;;;;;;;11.04;69.56;100787.19;675096;29;1101;-79
2022/11/29 00:46:03;;;;;;;41.08;18.00;;;;;;;11.00;69.75;100780.13;675228;29;1209;-80
2022/11/29 00:46:24;;;;;;;38.13;17.83;;;;;;;11.01;69.73;100790.63;675117;29;1280;-82
2022/11/29 00:46:45;;;;;;;39.43;18.87;;;;;;;11.05;69.76;100796.81;675108;29;828;-82
2022/11/29 00:47:05;;;;;;;37.83;18.40;;;;;;;11.04;69.65;100787.19;677333;29;1154;-82
2022/11/29 00:47:26;;;;;;;42.63;18.58;;;;;;;11.02;69.71;100784.56;680538;29;1079;-82
2022/11/29 00:47:46;;;;;;;39.88;17.90;;;;;;;10.99;69.78;100781.84;680562;29;1139;-81
2022/11/29 00:48:07;;;;;;;41.15;18.33;;;;;;;11.02;69.70;100791.50;677715;29;1088;-82
2022/11/29 00:48:28;;;;;;;34.70;18.13;;;;;;;11.05;69.86;100797.69;677898;29;1241;-82
2022/11/29 00:48:49;;;;;;;39.20;18.80;;;;;;;11.06;69.70;100796.84;677857;29;1187;-81
2022/11/29 00:49:10;;;;;;;43.58;19.30;;;;;;;11.01;69.79;100789.75;672503;29;1223;-82
2022/11/29 00:49:30;;;;;;;44.03;19.13;;;;;;;10.99;69.60;100792.31;675395;29;1282;-82
2022/11/29 00:49:51;;;;;;;42.63;18.53;;;;;;;11.01;70.12;100795.84;672811;29;900;-82
2022/11/29 00:50:11;;;;;;;38.30;17.95;;;;;;;11.00;69.95;100787.97;672525;29;1159;-82
2022/11/29 00:50:32;;;;;;;39.10;18.43;;;;;;;11.00;69.77;100791.44;675454;29;848;-82
2022/11/29 00:50:53;;;;;;;36.20;18.15;;;;;;;11.01;69.83;100793.25;675324;29;1321;-81
2022/11/29 00:51:14;;;;;;;35.75;17.73;;;;;;;10.99;69.78;100783.59;677725;29;1184;-82
2022/11/29 00:51:35;;;;;;;33.30;17.70;;;;;;;11.00;69.90;100788.84;677959;29;822;-82
2022/11/29 00:51:55;;;;;;;34.63;18.40;;;;;;;11.02;69.50;100789.78;675228;29;1284;-79
2022/11/29 00:52:16;;;;;;;33.28;18.55;;;;;;;11.01;69.79;100792.34;677703;29;1097;-79
2022/11/29 00:52:36;;;;;;;33.80;19.03;;;;;;;11.05;69.65;100789.00;677921;29;1261;-80
2022/11/29 00:52:57;;;;;;;35.67;19.08;;;;;;;11.03;69.93;100790.66;677888;29;829;-79
2022/11/29 00:53:17;;;;;;;42.47;19.60;;;;;;;11.07;69.97;100800.34;675189;29;1230;-82
2022/11/29 00:53:38;;;;;;;41.70;19.33;;;;;;;11.01;69.54;100795.84;672645;29;1417;-82
2022/11/29 00:53:59;;;;;;;43.50;19.55;;;;;;;11.01;69.59;100790.63;672875;29;729;-82
2022/11/29 00:54:20;;;;;;;38.30;19.08;;;;;;;11.02;69.84;100789.78;672545;29;1168;-82
2022/11/29 00:54:40;;;;;;;38.97;18.63;;;;;;;11.01;69.66;100789.75;675431;29;824;-81
2022/11/29 00:55:01;;;;;;;34.15;18.70;;;;;;;11.00;69.72;100793.19;675382;29;834;-82
2022/11/29 00:55:21;;;;;;;35.35;18.50;;;;;;;10.99;69.88;100791.44;675219;29;1149;-82
2022/11/29 00:55:49;;;;;;;38.13;18.23;;;;;;;11.02;69.89;100796.72;677940;29;1176;-82
2022/11/29 00:56:09;;;;;;;39.45;18.10;;;;;;;11.02;69.90;100789.78;680268;29;1333;-82
2022/11/29 00:56:30;;;;;;;36.63;18.45;;;;;;;11.04;69.82;100803.75;680589;29;850;-81
2022/11/29 00:56:51;;;;;;;34.50;17.93;;;;;;;11.02;69.81;100794.13;680436;29;816;-82
2022/11/29 00:57:12;;;;;;;35.55;18.15;;;;;;;11.03;69.70;100788.94;682926;29;1109;-81
2022/11/29 00:57:32;;;;;;;35.63;18.10;;;;;;;11.03;69.74;100790.66;677925;29;1393;-80
2022/11/29 00:57:53;;;;;;;35.63;18.48;;;;;;;11.03;69.70;100793.28;680507;29;1058;-82
2022/11/29 00:58:14;;;;;;;40.90;18.80;;;;;;;11.07;69.84;100797.75;680357;29;1111;-82
2022/11/29 00:58:36;;;;;;;41.03;19.20;;;;;;;11.07;69.77;100797.75;683242;29;846;-82
2022/11/29 00:58:57;;;;;;;45.67;19.92;;;;;;;11.01;69.81;100789.75;680544;29;1236;-82
2022/11/29 00:59:17;;;;;;;41.20;19.80;;;;;;;11.04;69.61;100790.72;675182;29;1249;-82
2022/11/29 00:59:38;;;;;;;43.60;19.33;;;;;;;11.15;69.78;100796.22;677831;29;1594;-82
2022/11/29 00:59:58;;;;;;;42.67;19.33;;;;;;;11.18;69.60;100784.97;677767;29;1390;-81
2022/11/29 01:00:19;;;;;;;43.70;19.70;;;;;;;11.21;69.38;100795.47;677811;29;1308;-82
2022/11/29 01:00:40;;;;;;;39.95;19.77;;;;;;;11.23;69.33;100794.69;677859;29;1076;-81
2022/11/29 01:01:00;;;;;;;36.80;19.05;;;;;;;11.20;69.14;100784.13;677975;29;800;-82
2022/11/29 01:01:21;;;;;;;37.63;19.20;;;;;;;11.30;69.14;100800.06;677624;29;1088;-81
2022/11/29 01:01:42;;;;;;;41.20;18.67;;;;;;;11.31;68.91;100802.69;677811;29;1269;-82
2022/11/29 01:02:03;;;;;;;42.17;18.02;;;;;;;11.29;69.02;100798.31;680421;29;1250;-82
2022/11/29 01:02:24;;;;;;;38.25;17.70;;;;;;;11.34;68.72;100801.91;677820;29;1085;-82
2022/11/29 01:02:44;;;;;;;36.57;18.80;;;;;;;11.33;69.11;100798.44;677640;29;1985;-82
2022/11/29 01:03:06;;;;;;;38.42;19.73;;;;;;;11.35;68.78;100798.44;675245;29;1061;-82
2022/11/29 01:03:26;;;;;;;42.53;20.05;;;;;;;11.33;68.80;100794.91;672610;29;1116;-82
2022/11/29 01:03:47;;;;;;;38.85;19.20;;;;;;;11.31;68.78;100788.78;675240;29;1052;-82
2022/11/29 01:04:08;;;;;;;40.17;19.30;;;;;;;11.34;68.64;100794.97;677728;29;1465;-79
2022/11/29 01:04:28;;;;;;;39.63;19.20;;;;;;;11.34;68.81;100791.44;680571;29;1184;-80
2022/11/29 01:04:49;;;;;;;41.88;18.92;;;;;;;11.34;68.64;100794.06;677926;29;741;-79
2022/11/29 01:05:30;;;;;;;43.63;18.73;;;;;;;11.41;68.80;100803.81;677919;29;1194;-79
2022/11/29 01:05:51;;;;;;;41.45;19.40;;;;;;;11.33;68.56;100800.13;680499;29;863;-79
2022/11/29 01:06:17;;;;;;;39.45;19.40;;;;;;;11.33;68.84;100794.91;677709;29;1101;-79
2022/11/29 01:06:37;;;;;;;40.45;19.48;;;;;;;11.36;68.94;100795.88;676050;29;1131;-80
2022/11/29 01:06:58;;;;;;;36.97;19.63;;;;;;;11.35;68.58;100793.22;675216;29;1185;-80
2022/11/29 01:07:18;;;;;;;37.35;19.48;;;;;;;11.35;68.61;100788.00;675110;29;1079;-82
2022/11/29 01:07:39;;;;;;;35.95;19.38;;;;;;;11.36;68.54;100794.97;677999;29;740;-82
2022/11/29 01:08:00;;;;;;;37.77;18.80;;;;;;;11.37;68.62;100791.53;677843;29;1042;-82
2022/11/29 01:08:20;;;;;;;36.80;18.33;;;;;;;11.42;68.62;100800.38;677645;29;1255;-82
2022/11/29 01:08:41;;;;;;;35.42;17.33;;;;;;;11.41;68.61;100797.72;680391;29;1161;-82
2022/11/29 01:09:03;;;;;;;33.50;17.60;;;;;;;11.45;68.26;100803.06;677851;29;1285;-82
2022/11/29 01:09:23;;;;;;;37.08;18.90;;;;;;;11.38;68.53;100790.69;677864;29;1100;-81
2022/11/29 01:09:44;;;;;;;40.22;19.55;;;;;;;11.39;68.51;100797.69;680596;29;737;-82
2022/11/29 01:10:05;;;;;;;41.63;19.23;;;;;;;11.33;68.38;100787.97;677706;29;1073;-83
2022/11/29 01:10:26;;;;;;;39.75;18.77;;;;;;;11.36;68.39;100793.25;677892;29;1316;-82
2022/11/29 01:10:47;;;;;;;43.05;18.80;;;;;;;11.41;68.23;100797.72;680623;29;1429;-82
2022/11/29 01:11:10;;;;;;;42.47;18.90;;;;;;;11.43;68.24;100796.03;680279;29;1201;-81
2022/11/29 01:11:31;;;;;;;37.92;18.25;;;;;;;11.40;68.58;100796.84;675133;29;1148;-82
2022/11/29 01:11:51;;;;;;;36.85;17.70;;;;;;;11.34;68.12;100787.13;672749;29;1068;-82
2022/11/29 01:12:12;;;;;;;38.90;17.80;;;;;;;11.33;68.55;100789.69;675029;29;1070;-81
2022/11/29 01:12:37;;;;;;;40.90;17.80;;;;;;;11.40;68.48;100798.56;675415;29;776;-82
2022/11/29 01:12:58;;;;;;;39.17;17.80;;;;;;;11.38;68.41;100798.53;675224;29;1136;-82
2022/11/29 01:13:18;;;;;;;35.33;17.58;;;;;;;11.34;68.10;100791.44;677739;29;1129;-82
2022/11/29 01:13:40;;;;;;;35.13;18.03;;;;;;;11.34;68.33;100791.44;677813;29;1108;-82
2022/11/29 01:14:02;;;;;;;37.78;18.20;;;;;;;11.33;68.39;100789.69;680520;29;1254;-81
2022/11/29 01:14:22;;;;;;;39.88;18.40;;;;;;;11.33;68.46;100790.59;675124;29;1104;-81
2022/11/29 01:14:43;;;;;;;35.97;17.98;;;;;;;11.34;68.50;100787.13;677878;29;1066;-82
2022/11/29 01:15:05;;;;;;;36.88;18.60;;;;;;;11.37;68.14;100788.94;675158;29;1172;-82
2022/11/29 01:15:27;;;;;;;35.50;17.95;;;;;;;11.33;68.34;100787.97;677865;29;1005;-81
2022/11/29 01:15:54;;;;;;;40.55;18.30;;;;;;;11.32;68.58;100790.53;677935;29;907;-80
2022/11/29 01:16:16;;;;;;;39.15;18.88;;;;;;;11.38;68.48;100802.00;677546;29;1878;-82
2022/11/29 01:16:37;;;;;;;37.58;18.35;;;;;;;11.34;68.37;100791.44;680329;29;919;-82
2022/11/29 01:16:58;;;;;;;37.90;18.25;;;;;;;11.32;68.33;100791.41;677807;29;1172;-82
2022/11/29 01:17:18;;;;;;;38.65;17.42;;;;;;;11.37;68.63;100792.41;672549;29;1186;-82
2022/11/29 01:17:39;;;;;;;38.00;18.10;;;;;;;11.23;68.75;100786.84;675100;29;1398;-82
2022/11/29 01:18:00;;;;;;;38.83;18.55;;;;;;;11.32;68.48;100787.91;675331;29;819;-82
2022/11/29 01:18:21;;;;;;;40.93;19.17;;;;;;;11.29;68.61;100787.84;674968;29;1272;-82
2022/11/29 01:18:42;;;;;;;38.03;18.87;;;;;;;11.36;68.60;100800.19;675193;29;1056;-82
2022/11/29 01:19:03;;;;;;;38.15;18.30;;;;;;;11.29;68.75;100785.25;677702;29;1325;-82
2022/11/29 01:19:24;;;;;;;39.65;18.35;;;;;;;11.33;68.59;100794.91;675272;29;1194;-82
2022/11/29 01:19:44;;;;;;;43.10;18.60;;;;;;;11.31;68.55;100780.94;677855;29;1101;-82
2022/11/29 01:20:07;;;;;;;41.00;18.25;;;;;;;11.40;68.48;100799.44;677800;29;1138;-82
2022/11/29 01:20:28;;;;;;;39.38;18.40;;;;;;;11.35;68.32;100791.50;675297;29;869;-81
2022/11/29 01:21:01;;;;;;;37.20;18.42;;;;;;;11.36;68.46;100795.88;672721;29;1275;-82
2022/11/29 01:21:23;;;;;;;34.30;18.17;;;;;;;11.34;68.54;100791.44;674931;29;1097;-82
2022/11/29 01:21:43;;;;;;;34.35;18.63;;;;;;;11.38;68.46;100793.31;675215;29;856;-81
2022/11/29 01:22:04;;;;;;;34.03;19.03;;;;;;;11.32;68.51;100793.16;675280;29;1092;-82
2022/11/29 01:22:24;;;;;;;31.52;18.85;;;;;;;11.33;68.45;100795.81;677589;29;1218;-82
2022/11/29 01:22:45;;;;;;;32.83;19.13;;;;;;;11.32;68.51;100780.09;677557;29;1903;-82
2022/11/29 01:23:06;;;;;;;35.00;19.25;;;;;;;11.32;68.59;100788.78;677562;29;1206;-82
2022/11/29 01:23:27;;;;;;;37.28;19.05;;;;;;;11.37;68.39;100802.00;680562;29;850;-81
2022/11/29 01:23:50;;;;;;;38.88;18.70;;;;;;;11.35;68.54;100794.09;683213;29;1346;-81
2022/11/29 01:24:11;;;;;;;38.28;18.50;;;;;;;11.38;68.55;100798.53;674990;29;1271;-82
2022/11/29 01:24:32;;;;;;;41.10;18.30;;;;;;;11.35;68.26;100798.44;677915;29;1220;-81
2022/11/29 01:24:52;;;;;;;39.60;18.20;;;;;;;11.34;68.67;100797.56;677780;29;1066;-82
2022/11/29 01:25:13;;;;;;;39.10;18.55;;;;;;;11.32;68.37;100785.31;677673;29;1109;-82
2022/11/29 01:25:34;;;;;;;37.30;18.80;;;;;;;11.32;68.63;100798.38;675539;29;852;-82
2022/11/29 01:25:59;;;;;;;35.87;18.90;;;;;;;11.33;68.61;100803.66;672666;29;1207;-81
2022/11/29 01:26:24;;;;;;;36.83;18.65;;;;;;;11.34;68.80;100796.69;672495;29;1974;-81
2022/11/29 01:26:44;;;;;;;36.90;19.05;;;;;;;11.33;68.69;100800.13;672406;29;1469;-82
2022/11/29 01:27:05;;;;;;;39.88;19.40;;;;;;;11.34;68.46;100791.44;672627;29;1187;-82
2022/11/29 01:27:25;;;;;;;38.58;19.08;;;;;;;11.35;68.50;100801.06;669948;29;1048;-82
2022/11/29 01:27:46;;;;;;;39.40;18.60;;;;;;;11.32;68.57;100793.16;675091;29;1178;-82
2022/11/29 01:28:07;;;;;;;34.88;18.48;;;;;;;11.37;68.70;100799.38;675049;29;1159;-82
2022/11/29 01:28:28;;;;;;;34.33;18.45;;;;;;;11.33;68.58;100801.03;675086;29;1298;-82
2022/11/29 01:28:50;;;;;;;31.92;18.00;;;;;;;11.33;68.78;100792.31;677726;29;893;-81
2022/11/29 01:29:12;;;;;;;32.30;17.17;;;;;;;11.39;68.24;100802.91;674841;29;1141;-82
2022/11/29 01:29:32;;;;;;;31.70;17.38;;;;;;;11.35;68.89;100795.81;675222;29;789;-82
2022/11/29 01:29:53;;;;;;;31.23;17.53;;;;;;;11.31;68.62;100797.47;675072;29;1201;-81
2022/11/29 01:30:14;;;;;;;34.67;17.83;;;;;;;11.40;68.40;100804.69;674785;29;1192;-82
2022/11/29 01:30:36;;;;;;;35.80;17.75;;;;;;;11.35;68.27;100801.94;675049;29;1066;-82
2022/11/29 01:30:57;;;;;;;35.20;17.92;;;;;;;11.34;68.51;100799.28;675029;29;1267;-80
2022/11/29 01:31:21;;;;;;;33.05;18.00;;;;;;;11.35;68.75;100799.34;672427;29;1086;-79
2022/11/29 01:31:42;;;;;;;37.95;18.98;;;;;;;11.37;68.57;100807.22;677732;29;844;-79
2022/11/29 01:32:03;;;;;;;37.05;19.25;;;;;;;11.36;68.33;100806.31;677870;29;1211;-79
2022/11/29 01:32:24;;;;;;;39.35;20.05;;;;;;;11.28;68.36;100802.63;674967;29;1154;-79
2022/11/29 01:32:45;;;;;;;33.63;19.15;;;;;;;11.30;68.39;100810.53;680420;29;816;-79
2022/11/29 01:33:06;;;;;;;35.22;19.10;;;;;;;11.30;68.77;100802.69;677578;29;1266;-79
2022/11/29 01:33:26;;;;;;;34.33;18.57;;;;;;;11.30;68.47;100807.91;677711;29;1059;-79
2022/11/29 01:33:47;;;;;;;31.52;18.40;;;;;;;11.30;68.65;100805.28;675117;29;1154;-80
2022/11/29 01:34:09;;;;;;;29.23;18.15;;;;;;;11.26;68.52;100803.44;674889;29;1142;-79
2022/11/29 01:34:30;;;;;;;28.25;18.40;;;;;;;11.21;68.58;100799.00;677705;29;1134;-79
2022/11/29 01:34:50;;;;;;;29.55;18.20;;;;;;;11.18;68.63;100796.28;675267;29;1228;-82
2022/11/29 01:35:11;;;;;;;29.05;17.73;;;;;;;11.23;68.76;100802.53;674921;29;1023;-82
2022/11/29 01:35:31;;;;;;;29.23;18.00;;;;;;;11.22;68.82;100805.97;674996;29;1295;-82
2022/11/29 01:35:53;;;;;;;28.92;17.67;;;;;;;11.23;68.81;100797.28;680224;29;1347;-82
2022/11/29 01:36:14;;;;;;;29.92;17.67;;;;;;;11.24;68.82;100800.78;677438;29;1208;-82
2022/11/29 01:36:35;;;;;;;32.63;18.10;;;;;;;11.19;68.71;100798.03;677618;29;1293;-82
2022/11/29 01:36:55;;;;;;;33.20;18.40;;;;;;;11.22;68.74;100803.38;677595;29;1015;-82
2022/11/29 01:37:16;;;;;;;32.92;18.65;;;;;;;11.22;68.91;100792.03;680064;29;1305;-82
2022/11/29 01:37:36;;;;;;;31.73;18.33;;;;;;;11.26;68.69;100804.34;680295;29;1071;-82
2022/11/29 01:37:57;;;;;;;32.53;18.47;;;;;;;11.27;68.83;100795.66;679659;29;1021;-82
2022/11/29 01:38:18;;;;;;;31.98;18.50;;;;;;;11.32;68.61;100803.59;674951;29;1178;-82
2022/11/29 01:38:54;;;;;;;32.35;18.70;;;;;;;11.32;68.81;100801.00;677870;29;867;-82
2022/11/29 01:39:15;;;;;;;34.55;20.05;;;;;;;11.34;68.69;100801.91;682705;29;1177;-82
2022/11/29 01:39:36;;;;;;;36.80;19.80;;;;;;;11.34;68.82;100800.19;680323;29;1215;-82
2022/11/29 01:39:56;;;;;;;40.20;18.70;;;;;;;11.32;68.66;100791.41;680270;29;1306;-82
2022/11/29 01:40:17;;;;;;;47.20;18.67;;;;;;;11.34;68.83;100802.78;674871;29;1315;-82
2022/11/29 01:40:37;;;;;;;46.95;19.02;;;;;;;11.36;68.66;100806.31;675173;29;1246;-82
2022/11/29 01:41:06;;;;;;;44.55;19.70;;;;;;;11.44;68.62;100816.94;675103;29;764;-82